Latest Weather Observations for Padthaway

IDS60801

Issued at 8:21 pm CDT Sunday 29 March 2020 (issued every 10 minutes, with the page automatically refreshed every 10 minutes)

About weather observations | Map of weather stations | Latest weather observations for SA | Other Formats
Station Details ID: 026100 Name: PADTHAWAY SOUTH Lat: -36.65 Lon: 140.52 Height: 37.0 m
Data from the previous 72 hours. | See also: Recent months at Padthaway
Date/Time
CDT
Temp
°C
App
Temp
°C
Dew
Point
°C
Rel
Hum
%
Delta-T
°C
Wind Press
QNH
hPa
Press
MSL
hPa
Rain since
9am
mm
Dir  Spd
km/h
Gust
km/h
Spd
kts
Gust
kts
29/08:00pm 17.2 15.6 11.5 69 3.1 W 11 17 6 9 - - 0.0
29/07:30pm 18.0 16.1 10.6 62 4.0 W 11 17 6 9 - - 0.0
29/07:00pm 19.2 16.5 10.5 57 4.7 W 15 22 8 12 - - 0.0
29/06:30pm 20.5 17.4 10.3 52 5.5 W 17 24 9 13 - - 0.0
29/06:00pm 21.5 18.1 10.6 50 6.0 WSW 19 26 10 14 - - 0.0
29/05:30pm 22.3 18.9 11.1 49 6.2 W 20 30 11 16 - - 0.0
29/05:00pm 22.6 18.9 10.1 45 6.8 W 20 32 11 17 - - 0.0
29/04:30pm 23.7 20.3 11.4 46 6.9 WNW 20 30 11 16 - - 0.0
29/04:00pm 23.6 20.0 10.6 44 7.2 WNW 20 37 11 20 - - 0.0
29/03:30pm 24.0 20.3 10.3 42 7.6 WNW 20 30 11 16 - - 0.0
29/03:00pm 23.8 20.4 11.2 45 7.1 W 20 30 11 16 - - 0.0
29/02:30pm 23.4 20.0 12.4 50 6.3 WNW 22 33 12 18 - - 0.0
29/02:00pm 24.5 20.9 13.1 49 6.6 WNW 24 33 13 18 - - 0.0
29/01:30pm 23.4 20.7 13.6 54 5.7 W 20 32 11 17 - - 0.0
29/01:00pm 24.4 20.3 11.4 44 7.3 NW 24 41 13 22 - - 0.0
29/12:30pm 23.9 19.4 10.2 42 7.5 NNW 24 33 13 18 - - 0.0
29/12:00pm 22.4 18.5 10.9 48 6.4 NNW 22 32 12 17 - - 0.0
29/11:30am 20.8 17.2 10.6 52 5.6 NNW 20 32 11 17 - - 0.0
29/11:00am 20.0 16.2 11.2 57 4.8 N 22 33 12 18 - - 0.0
29/10:30am 19.6 16.2 11.4 59 4.5 N 20 32 11 17 - - 0.0
29/10:00am 18.7 15.7 10.8 60 4.3 N 17 20 9 11 - - 0.0
29/09:30am 19.0 15.5 10.3 57 4.7 N 19 26 10 14 - - 0.0
29/09:00am 19.2 17.0 12.2 64 3.9 N 15 20 8 11 - - 0.4
29/08:30am 20.4 17.3 11.6 57 4.9 NNW 19 28 10 15 - - 0.0
29/08:00am 22.5 18.6 10.9 48 6.4 NNW 22 33 12 18 - - 0.0
29/07:30am 22.2 17.8 11.6 51 5.9 N 26 39 14 21 - - 0.0
29/07:00am 23.2 18.9 10.6 45 7.0 NNE 24 41 13 22 - - 0.0
29/06:30am 23.3 18.9 10.4 44 7.1 NNE 24 39 13 21 - - 0.0
29/06:00am 23.2 19.2 10.3 44 7.1 NNE 22 33 12 18 - - 0.0
29/05:30am 23.1 19.4 10.2 44 7.1 NNE 20 33 11 18 - - 0.0
29/05:00am 23.1 18.6 10.2 44 7.1 NNE 24 33 13 18 - - 0.0
29/04:30am 23.1 18.6 10.2 44 7.1 NNE 24 37 13 20 - - 0.0
29/04:00am 23.1 18.6 10.2 44 7.1 NNE 24 33 13 18 - - 0.0
29/03:30am 23.1 18.5 9.8 43 7.2 NNE 24 35 13 19 - - 0.0
29/03:00am 22.8 18.6 9.6 43 7.2 NNE 22 32 12 17 - - 0.0
29/02:30am 22.6 18.6 8.3 40 7.6 NNE 19 30 10 16 - - 0.0
29/02:00am 22.2 19.0 6.8 37 7.9 NNE 13 19 7 10 - - 0.0
29/01:30am 22.4 19.1 6.6 36 8.1 NNE 13 19 7 10 - - 0.0
29/01:00am 23.0 19.4 6.7 35 8.4 NNE 15 20 8 11 - - 0.0
29/12:30am 22.2 19.0 6.8 37 7.9 NNE 13 17 7 9 - - 0.0
29/12:00am 21.2 18.1 7.1 40 7.2 NNW 13 17 7 9 - - 0.0
 
Date/Time
CDT
Temp
°C
App
Temp
°C
Dew
Point
°C
Rel
Hum
%
Delta-T
°C
Wind Press
QNH
hPa
Press
MSL
hPa
Rain since
9am
mm
Dir  Spd
km/h
Gust
km/h
Spd
kts
Gust
kts
28/11:30pm 18.6 16.6 8.6 52 5.2 NNE 9 13 5 7 - - 0.0
28/11:00pm 17.0 15.2 7.9 55 4.6 N 7 9 4 5 - - 0.0
28/10:30pm 17.6 16.0 7.9 53 4.9 NNE 6 9 3 5 - - 0.0
28/10:00pm 19.0 17.6 7.4 47 5.9 NW 4 7 2 4 - - 0.0
28/09:30pm 19.4 17.3 6.8 44 6.3 ENE 7 11 4 6 - - 0.0
28/09:00pm 18.8 16.6 7.9 49 5.6 E 9 11 5 6 - - 0.0
28/08:30pm 21.4 19.5 6.5 38 7.6 WNW 6 13 3 7 - - 0.0
28/08:00pm 22.8 20.2 6.1 34 8.5 S 9 11 5 6 - - 0.0
28/07:30pm 22.9 21.4 9.0 41 7.5 N 7 9 4 5 - - 0.0
28/07:00pm 25.7 23.4 7.3 31 9.7 N 9 11 5 6 - - 0.0
28/06:30pm 28.5 25.0 5.4 23 12.0 NNW 13 17 7 9 - - 0.0
28/06:00pm 29.9 26.1 5.9 22 12.7 NNW 15 24 8 13 - - 0.0
28/05:30pm 30.4 26.6 5.6 21 13.1 N 15 20 8 11 - - 0.0
28/05:00pm 29.7 25.1 5.7 22 12.6 NNW 19 30 10 16 - - 0.0
28/04:30pm 30.3 24.6 4.9 20 13.2 NNW 24 37 13 20 - - 0.0
28/04:00pm 29.9 25.7 5.9 22 12.7 N 17 30 9 16 - - 0.0
28/03:30pm 30.3 25.6 6.2 22 12.8 N 20 35 11 19 - - 0.0
28/03:00pm 30.3 24.6 4.9 20 13.2 NNW 24 33 13 18 - - 0.0
28/02:30pm 29.7 24.0 5.1 21 12.8 NNW 24 37 13 20 - - 0.0
28/02:20pm 30.0 23.3 3.9 19 13.3 NNW 28 48 15 26 - - 0.0
28/02:00pm 30.6 25.2 4.4 19 13.6 NNW 22 35 12 19 - - 0.0
28/01:30pm 30.3 24.0 5.6 21 13.0 NNW 28 39 15 21 - - 0.0
28/01:00pm 29.6 24.5 7.5 25 12.0 N 24 37 13 20 - - 0.0
28/12:30pm 29.1 23.9 7.1 25 11.8 NNW 24 35 13 19 - - 0.0
28/12:00pm 28.9 24.3 8.0 27 11.4 N 22 35 12 19 - - 0.0
28/11:30am 27.9 23.3 9.7 32 10.1 NNW 24 33 13 18 - - 0.0
28/11:00am 27.6 24.1 10.3 34 9.7 N 19 28 10 15 - - 0.0
28/10:30am 26.0 22.9 10.2 37 8.8 NNE 17 22 9 12 - - 0.0
28/10:00am 24.0 20.0 10.3 42 7.6 NNE 22 30 12 16 - - 0.0
28/09:30am 22.7 19.1 9.8 44 7.0 NNE 19 28 10 15 - - 0.0
28/09:00am 21.3 17.3 9.2 46 6.5 NNE 20 30 11 16 - - 0.0
28/08:30am 20.3 16.9 9.2 49 5.9 NE 17 26 9 14 - - 0.0
28/08:00am 19.2 15.7 8.8 51 5.4 NE 17 24 9 13 - - 0.0
28/07:30am 19.0 15.6 9.2 53 5.2 NE 17 26 9 14 - - 0.0
28/07:00am 19.1 16.1 9.3 53 5.2 NE 15 22 8 12 - - 0.0
28/06:30am 19.0 16.1 9.5 54 5.0 NE 15 22 8 12 - - 0.0
28/06:00am 19.0 16.1 9.8 55 4.9 NE 15 24 8 13 - - 0.0
28/05:30am 18.6 16.2 10.2 58 4.5 NE 13 17 7 9 - - 0.0
28/05:00am 17.8 15.7 9.9 60 4.2 NNE 11 15 6 8 - - 0.0
28/04:30am 13.7 12.3 9.6 76 2.1 N 7 11 4 6 - - 0.0
28/04:00am 11.6 9.5 8.1 79 1.7 NE 9 13 5 7 - - 0.0
28/03:30am 11.1 10.5 7.2 77 1.9 CALM 0 0 0 0 - - 0.0
28/03:00am 11.1 10.5 7.2 77 1.9 CALM 0 0 0 0 - - 0.0
28/02:30am 11.5 10.9 7.6 77 1.9 CALM 0 0 0 0 - - 0.0
28/02:00am 12.2 11.8 8.1 76 2.0 CALM 0 0 0 0 - - 0.0
28/01:30am 13.1 12.7 8.2 72 2.4 CALM 0 0 0 0 - - 0.0
28/01:00am 12.9 12.4 8.0 72 2.4 CALM 0 0 0 0 - - 0.0
28/12:30am 13.0 11.8 8.1 72 2.4 W 4 6 2 3 - - 0.0
28/12:00am 12.6 10.9 7.5 71 2.5 W 6 7 3 4 - - 0.0
 
Date/Time
CDT
Temp
°C
App
Temp
°C
Dew
Point
°C
Rel
Hum
%
Delta-T
°C
Wind Press
QNH
hPa
Press
MSL
hPa
Rain since
9am
mm
Dir  Spd
km/h
Gust
km/h
Spd
kts
Gust
kts
27/11:30pm 13.0 11.4 7.9 71 2.5 W 6 6 3 3 - - 0.0
27/11:00pm 13.7 11.8 7.7 67 3.0 W 7 11 4 6 - - 0.0
27/10:30pm 14.0 13.5 8.0 67 3.0 CALM 0 2 0 1 - - 0.0
27/10:00pm 14.7 14.1 7.3 61 3.6 CALM 0 0 0 0 - - 0.0
27/09:30pm 15.6 15.1 7.9 60 3.9 CALM 0 0 0 0 - - 0.0
27/09:00pm 16.7 16.2 7.9 56 4.4 CALM 0 0 0 0 - - 0.0
27/08:30pm 19.3 17.6 8.3 49 5.7 SSE 7 9 4 5 - - 0.0
27/08:00pm 21.0 18.5 8.0 43 6.8 SSW 11 15 6 8 - - 0.0
27/07:30pm 22.5 20.6 7.5 38 7.8 WSW 7 17 4 9 - - 0.0
27/07:00pm 26.1 24.9 8.1 32 9.7 NW 4 7 2 4 - - 0.0
27/06:30pm 27.3 25.4 7.7 29 10.5 NE 7 15 4 8 - - 0.0
27/06:00pm 27.6 25.6 6.9 27 11.0 NNE 7 15 4 8 - - 0.0
27/05:30pm 27.3 24.8 6.7 27 10.9 N 9 13 5 7 - - 0.0
27/05:00pm 27.5 25.4 6.8 27 11.0 N 7 11 4 6 - - 0.0
27/04:30pm 27.9 26.0 6.6 26 11.3 NNW 6 13 3 7 - - 0.0
27/04:00pm 28.2 26.0 6.3 25 11.5 W 7 9 4 5 - - 0.0
27/03:30pm 28.3 25.3 5.8 24 11.8 NNE 11 17 6 9 - - 0.0
27/03:00pm 27.9 25.7 6.1 25 11.4 NE 7 15 4 8 - - 0.0
27/02:30pm 27.5 24.4 5.7 25 11.3 N 11 17 6 9 - - 0.0
27/02:00pm 27.1 24.2 4.8 24 11.4 NNE 9 20 5 11 - - 0.0
27/01:30pm 26.1 23.7 5.1 26 10.7 NNW 7 13 4 7 - - 0.0
27/01:00pm 26.2 23.8 5.2 26 10.7 NE 7 15 4 8 - - 0.0
27/12:30pm 26.2 22.9 4.6 25 10.9 NNE 11 17 6 9 - - 0.0
27/12:00pm 25.5 23.1 7.1 31 9.7 E 9 15 5 8 - - 0.0
27/11:30am 24.4 22.4 8.8 37 8.4 N 9 15 5 8 - - 0.0
27/11:00am 23.3 21.3 8.6 39 7.8 NNE 9 15 5 8 - - 0.0
27/10:30am 22.2 21.2 8.7 42 7.2 NE 4 9 2 5 - - 0.0
27/10:00am 20.6 17.8 8.6 46 6.3 NE 13 17 7 9 - - 0.0
27/09:30am 19.8 17.4 8.5 48 5.9 NE 11 19 6 10 - - 0.0
27/09:00am 15.1 14.7 9.7 70 2.8 SE 2 9 1 5 - - 0.0
27/08:30am 10.2 9.7 7.8 85 1.2 CALM 0 4 0 2 - - 0.0
27/08:00am 7.4 5.7 5.9 90 0.7 S 4 7 2 4 - - 0.0
27/07:30am 6.6 4.4 5.1 90 0.7 SSE 6 7 3 4 - - 0.0
27/07:00am 6.7 3.9 5.3 91 0.6 SSE 9 11 5 6 - - 0.0
27/06:30am 6.4 3.6 5.0 91 0.6 SE 9 11 5 6 - - 0.0
27/06:00am 5.8 4.1 4.1 89 0.7 SSW 2 6 1 3 - - 0.0
27/05:30am 6.1 4.5 4.3 88 0.8 S 2 11 1 6 - - 0.0
27/05:00am 6.5 4.1 4.3 86 0.9 S 6 7 3 4 - - 0.0
27/04:30am 7.0 5.8 4.7 85 1.0 CALM 0 0 0 0 - - 0.0
27/04:00am 7.7 5.9 5.3 85 1.1 S 4 6 2 3 - - 0.0
27/03:30am 8.8 6.7 6.6 86 1.0 S 7 9 4 5 - - 0.0
27/03:00am 9.3 6.6 7.4 88 0.9 SSE 11 13 6 7 - - 0.0
27/02:30am 9.1 6.0 7.2 88 0.9 SSE 13 13 7 7 - - 0.0
27/02:00am 8.7 6.3 6.8 88 0.9 SSE 9 11 5 6 - - 0.0
27/01:30am 8.9 6.1 6.9 87 0.9 SSE 11 11 6 6 - - 0.0
27/01:00am 9.0 7.0 6.4 84 1.2 SE 6 9 3 5 - - 0.0
27/12:30am 9.7 7.7 7.1 84 1.2 SE 7 11 4 6 - - 0.0
27/12:00am 10.0 7.2 7.1 82 1.4 SSE 11 13 6 7 - - 0.0
 
Date/Time
CDT
Temp
°C
App
Temp
°C
Dew
Point
°C
Rel
Hum
%
Delta-T
°C
Wind Press
QNH
hPa
Press
MSL
hPa
Rain since
9am
mm
Dir  Spd
km/h
Gust
km/h
Spd
kts
Gust
kts
26/11:30pm 11.5 9.2 7.4 76 2.0 SE 9 11 5 6 - - 0.0
26/11:00pm 13.4 11.2 8.0 70 2.7 SSE 9 15 5 8 - - 0.0
26/10:30pm 14.6 11.4 8.5 67 3.1 SSE 15 19 8 10 - - 0.0
26/10:00pm 15.3 12.1 8.5 64 3.4 SSE 15 20 8 11 - - 0.0
26/09:30pm 15.9 13.1 8.4 61 3.8 SSE 13 20 7 11 - - 0.0
26/09:00pm 16.7 13.8 8.1 57 4.4 SSE 13 17 7 9 - - 0.0
26/08:30pm 13.6 12.9 6.9 64 3.2 CALM 0 0 0 0 - - 0.0

Other formats

Comma delimited format used in spreadsheet applications
http://www.bom.gov.au/fwo/IDS60801/IDS60801.95823.axf

JavaScript Object Notation format (JSON) in row-major order
http://www.bom.gov.au/fwo/IDS60801/IDS60801.95823.json

Data quality

Most of these data are generated automatically and are frequently updated. Quality checks on data are not normally performed. It is possible for incorrect values to appear. Refer to information at About Latest Weather Observations and please check the disclaimer before using these data.